Time;durP1;ratioP1;P1;durP2;ratioP2;P2;SDS_P1;SDS_P2;PMS_P1;PMS_P2;Temp;Humidity;BMP_temperature;BMP_pressure;BME280_temperature;BME280_humidity;BME280_pressure;Samples;Min_cycle;Max_cycle;Signal;HPM_P1;HPM_P2
2021/01/10 00:02:23;;;;;;;18.73;13.33;;;-0.20;78.60;;;;;;5052377;28;20447;-77
2021/01/10 00:04:53;;;;;;;17.37;12.13;;;-0.30;79.10;;;;;;5048566;28;20454;-77
2021/01/10 00:07:23;;;;;;;15.37;12.63;;;-0.50;80.20;;;;;;5043421;28;20457;-77
2021/01/10 00:09:49;;;;;;;15.97;12.93;;;-0.60;81.40;;;;;;5050225;28;20451;-77
2021/01/10 00:12:20;;;;;;;17.13;13.17;;;-0.70;83.30;;;;;;5047742;28;20482;-77
2021/01/10 00:14:48;;;;;;;17.70;13.37;;;-0.70;84.10;;;;;;5046300;28;20625;-78
2021/01/10 00:17:14;;;;;;;18.97;13.17;;;-0.80;84.90;;;;;;5047077;28;20462;-77
2021/01/10 00:19:43;;;;;;;16.47;12.07;;;-0.90;85.80;;;;;;5049838;28;20926;-78
2021/01/10 00:22:14;;;;;;;14.73;11.80;;;-0.90;87.60;;;;;;5051864;28;20460;-77
2021/01/10 00:24:41;;;;;;;16.43;12.70;;;-1.00;87.40;;;;;;5050132;28;20519;-77
2021/01/10 00:27:09;;;;;;;16.67;13.20;;;-0.90;87.80;;;;;;5046267;28;20445;-77
2021/01/10 00:29:36;;;;;;;18.50;13.03;;;-0.90;87.10;;;;;;5045428;28;20441;-77
2021/01/10 00:32:05;;;;;;;20.57;14.50;;;-1.10;88.00;;;;;;5049828;28;20476;-77
2021/01/10 00:34:31;;;;;;;20.20;14.10;;;-1.00;89.30;;;;;;5048960;28;20514;-76
2021/01/10 00:36:58;;;;;;;19.97;14.17;;;-1.00;89.00;;;;;;5042112;28;20449;-77
2021/01/10 00:39:24;;;;;;;23.40;15.60;;;-1.10;89.30;;;;;;5048090;28;20554;-77
2021/01/10 00:41:50;;;;;;;18.30;13.67;;;-1.00;90.10;;;;;;5049727;28;20527;-77
2021/01/10 00:44:17;;;;;;;19.80;14.27;;;-0.80;89.30;;;;;;5050896;28;20489;-76
2021/01/10 00:46:43;;;;;;;21.23;14.33;;;-0.80;88.10;;;;;;5044686;28;20481;-78
2021/01/10 00:49:11;;;;;;;26.53;16.40;;;-0.70;87.50;;;;;;5042765;28;20458;-77
2021/01/10 00:51:37;;;;;;;25.60;15.63;;;-0.70;86.90;;;;;;5048158;28;21030;-75
2021/01/10 00:54:04;;;;;;;26.13;16.67;;;-0.60;86.80;;;;;;5046674;28;20455;-76
2021/01/10 00:56:30;;;;;;;25.10;15.13;;;-0.60;86.60;;;;;;5049828;28;20523;-75
2021/01/10 00:58:57;;;;;;;16.07;12.80;;;-0.70;86.80;;;;;;5047166;28;20459;-75
2021/01/10 01:01:23;;;;;;;21.77;13.57;;;-0.60;86.20;;;;;;5044463;28;20447;-76
2021/01/10 01:03:50;;;;;;;17.27;13.33;;;-0.60;85.40;;;;;;5043671;28;20541;-77
2021/01/10 01:06:17;;;;;;;17.60;13.67;;;-0.60;85.50;;;;;;5048467;28;20458;-77
2021/01/10 01:08:44;;;;;;;18.50;12.83;;;-0.50;85.60;;;;;;5048294;28;20450;-76
2021/01/10 01:11:11;;;;;;;16.83;12.90;;;-0.60;85.60;;;;;;5047199;28;20485;-77
2021/01/10 01:13:37;;;;;;;15.43;10.83;;;-0.50;85.20;;;;;;5048859;28;20482;-76
2021/01/10 01:16:07;;;;;;;18.97;13.60;;;-0.50;85.00;;;;;;5044388;28;20464;-77
2021/01/10 01:18:33;;;;;;;20.50;13.40;;;-0.50;84.60;;;;;;5041314;28;20477;-76
2021/01/10 01:21:00;;;;;;;16.07;12.50;;;-0.40;84.30;;;;;;5042108;28;20465;-76
2021/01/10 01:23:29;;;;;;;16.93;11.50;;;-0.50;84.10;;;;;;5041309;28;20456;-76
2021/01/10 01:25:56;;;;;;;19.13;13.40;;;-0.50;84.20;;;;;;5043771;28;20444;-76
2021/01/10 01:28:22;;;;;;;17.77;13.07;;;-0.50;84.40;;;;;;5052449;28;21016;-77
2021/01/10 01:30:49;;;;;;;15.70;12.70;;;-0.50;84.60;;;;;;5045774;28;20452;-76
2021/01/10 01:33:16;;;;;;;16.17;13.40;;;-0.50;85.00;;;;;;5050372;28;20455;-77
2021/01/10 01:35:42;;;;;;;17.73;13.00;;;-0.60;84.60;;;;;;5045301;28;20508;-76
2021/01/10 01:38:08;;;;;;;21.00;14.13;;;-0.60;85.10;;;;;;5053317;28;20450;-76
2021/01/10 01:40:36;;;;;;;19.70;14.43;;;-0.60;85.10;;;;;;5049040;28;21161;-77
2021/01/10 01:43:02;;;;;;;17.70;13.53;;;-0.60;85.30;;;;;;5047260;28;20445;-78
2021/01/10 01:45:29;;;;;;;19.40;12.80;;;-0.60;85.70;;;;;;5041313;28;20564;-77
2021/01/10 01:47:55;;;;;;;17.10;12.57;;;-0.60;85.30;;;;;;5045620;28;20460;-77
2021/01/10 01:50:22;;;;;;;18.17;12.43;;;-0.60;85.30;;;;;;5050103;28;20450;-76
2021/01/10 01:52:48;;;;;;;18.27;13.60;;;-0.60;85.20;;;;;;5055252;28;20469;-77
2021/01/10 01:55:15;;;;;;;16.43;12.30;;;-0.60;85.40;;;;;;5047052;28;20467;-77
2021/01/10 01:57:42;;;;;;;19.47;13.10;;;-0.60;85.70;;;;;;5046352;28;20796;-77
2021/01/10 02:00:13;;;;;;;21.30;13.47;;;-0.60;85.20;;;;;;5043046;28;21300;-76
2021/01/10 02:02:42;;;;;;;18.47;13.47;;;-0.60;85.40;;;;;;5055595;28;20434;-77
2021/01/10 02:05:14;;;;;;;16.00;12.43;;;-0.60;85.40;;;;;;5043155;28;20538;-77
2021/01/10 02:07:51;;;;;;;15.90;12.40;;;-0.60;85.20;;;;;;5051447;28;20958;-75
2021/01/10 02:10:21;;;;;;;17.07;12.83;;;-0.60;85.30;;;;;;5046702;28;20536;-76
2021/01/10 02:12:51;;;;;;;16.27;12.07;;;-0.70;85.80;;;;;;5044387;28;20470;-76
2021/01/10 02:15:21;;;;;;;17.23;12.60;;;-0.70;85.70;;;;;;5045726;28;20532;-77
2021/01/10 02:17:50;;;;;;;18.63;12.70;;;-0.70;85.60;;;;;;5045297;28;20541;-77
2021/01/10 02:20:25;;;;;;;18.17;13.03;;;-0.80;86.10;;;;;;5044565;28;20473;-79
2021/01/10 02:23:00;;;;;;;17.33;12.50;;;-0.80;86.80;;;;;;5047428;28;20547;-76
2021/01/10 02:25:29;;;;;;;14.97;12.30;;;-0.90;87.70;;;;;;5044610;28;20993;-76
2021/01/10 02:27:56;;;;;;;16.03;12.23;;;-1.00;89.30;;;;;;5053928;28;20458;-77
2021/01/10 02:30:23;;;;;;;16.60;11.77;;;-1.00;89.40;;;;;;5059496;28;20502;-76
2021/01/10 02:32:54;;;;;;;15.63;12.70;;;-1.00;89.10;;;;;;5050074;28;20791;-79
2021/01/10 02:35:22;;;;;;;16.47;12.83;;;-1.10;89.80;;;;;;5051162;28;20461;-79
2021/01/10 02:38:02;;;;;;;17.10;12.63;;;-1.20;89.90;;;;;;5049282;28;20459;-80
2021/01/10 02:40:36;;;;;;;17.43;13.00;;;-1.20;90.40;;;;;;5053328;28;20541;-79
2021/01/10 02:43:11;;;;;;;20.43;13.77;;;-1.20;91.00;;;;;;5052274;28;20442;-80
2021/01/10 02:45:40;;;;;;;18.93;13.27;;;-1.20;91.00;;;;;;5051552;28;20450;-79
2021/01/10 02:48:10;;;;;;;17.10;13.17;;;-1.30;91.40;;;;;;5049326;28;21290;-80
2021/01/10 02:50:40;;;;;;;17.70;13.70;;;-1.30;91.70;;;;;;5047441;28;20548;-79
2021/01/10 02:53:06;;;;;;;22.50;14.27;;;-1.40;92.00;;;;;;5056111;28;20488;-79
2021/01/10 02:55:34;;;;;;;19.60;14.27;;;-1.40;92.90;;;;;;5063419;28;20467;-80
2021/01/10 02:58:04;;;;;;;22.17;14.50;;;-1.50;93.30;;;;;;5054670;28;20544;-79
2021/01/10 03:00:33;;;;;;;21.50;14.90;;;-1.50;94.20;;;;;;5052559;28;20453;-79
2021/01/10 03:03:02;;;;;;;22.97;14.83;;;-1.50;93.80;;;;;;5045520;28;20848;-80
2021/01/10 03:05:32;;;;;;;20.27;14.17;;;-1.70;93.90;;;;;;5053416;28;20467;-79
2021/01/10 03:07:59;;;;;;;21.40;14.83;;;-1.70;95.50;;;;;;5051638;28;20450;-80
2021/01/10 03:10:26;;;;;;;24.90;15.17;;;-1.70;97.40;;;;;;5054909;28;20445;-79
2021/01/10 03:12:54;;;;;;;19.37;14.73;;;-1.80;96.70;;;;;;5049459;28;20507;-79
2021/01/10 03:15:21;;;;;;;20.47;14.17;;;-1.80;97.90;;;;;;5056935;28;20485;-79
2021/01/10 03:17:50;;;;;;;20.10;13.60;;;-1.70;98.90;;;;;;5057149;28;20488;-78
2021/01/10 03:20:18;;;;;;;18.30;14.00;;;-1.80;99.40;;;;;;5057679;28;21485;-80
2021/01/10 03:22:50;;;;;;;22.80;15.83;;;-1.90;99.90;;;;;;5054840;28;20562;-78
2021/01/10 03:25:19;;;;;;;23.50;16.20;;;-1.80;99.90;;;;;;5050392;28;20505;-79
2021/01/10 03:27:45;;;;;;;24.40;14.07;;;-1.90;98.90;;;;;;5052123;28;20476;-78
2021/01/10 03:30:20;;;;;;;19.93;14.10;;;-1.90;99.90;;;;;;5049444;28;20457;-79
2021/01/10 03:32:49;;;;;;;19.23;13.50;;;-2.00;99.90;;;;;;5057115;28;20488;-79
2021/01/10 03:35:17;;;;;;;23.63;13.43;;;-1.90;99.90;;;;;;5050447;28;20470;-78
2021/01/10 03:37:44;;;;;;;21.90;14.57;;;-1.90;99.90;;;;;;5057431;28;20465;-79
2021/01/10 03:40:11;;;;;;;22.63;15.07;;;-2.00;99.90;;;;;;5053216;28;20497;-79
2021/01/10 03:42:38;;;;;;;21.50;14.90;;;-2.00;99.90;;;;;;5051461;28;20960;-79
2021/01/10 03:45:09;;;;;;;18.50;13.00;;;-2.10;99.90;;;;;;5051572;28;20980;-79
2021/01/10 03:47:36;;;;;;;19.87;14.50;;;-2.20;99.90;;;;;;5053935;28;20536;-79
2021/01/10 03:50:04;;;;;;;20.30;13.30;;;-2.10;99.90;;;;;;5051182;28;20541;-80
2021/01/10 03:52:30;;;;;;;19.37;14.10;;;-2.10;99.90;;;;;;5057470;28;20451;-79
2021/01/10 03:54:59;;;;;;;23.47;15.30;;;-2.10;99.90;;;;;;5065714;28;20461;-78
2021/01/10 03:57:26;;;;;;;21.30;14.80;;;-2.00;99.90;;;;;;5053907;28;20453;-78
2021/01/10 03:59:54;;;;;;;20.50;13.67;;;-2.00;99.90;;;;;;5045366;28;20540;-79
2021/01/10 04:02:20;;;;;;;21.50;13.77;;;-2.00;99.90;;;;;;5049705;28;20549;-78
2021/01/10 04:04:47;;;;;;;23.67;13.70;;;-2.00;99.90;;;;;;5045819;28;20464;-79
2021/01/10 04:07:14;;;;;;;23.50;14.87;;;-2.00;99.90;;;;;;5052620;28;20465;-78
2021/01/10 04:09:40;;;;;;;19.53;14.83;;;-2.10;99.90;;;;;;5055797;28;20517;-79
2021/01/10 04:12:08;;;;;;;24.57;15.03;;;-2.00;99.90;;;;;;5045693;28;20506;-79
2021/01/10 04:14:34;;;;;;;21.43;14.20;;;-2.00;99.90;;;;;;5053771;28;20457;-78
2021/01/10 04:17:01;;;;;;;23.60;14.90;;;-1.90;99.90;;;;;;5058601;28;20445;-79
2021/01/10 04:19:27;;;;;;;20.43;14.03;;;-1.90;99.80;;;;;;5054580;28;20454;-80
2021/01/10 04:21:54;;;;;;;21.27;15.33;;;-1.90;98.20;;;;;;5050304;28;20459;-79
2021/01/10 04:24:21;;;;;;;24.23;15.53;;;-1.90;98.00;;;;;;5053550;28;20979;-79
2021/01/10 04:26:49;;;;;;;22.97;14.67;;;-1.60;98.30;;;;;;5056408;28;20850;-79
2021/01/10 04:29:17;;;;;;;22.17;15.73;;;-1.80;97.30;;;;;;5056042;28;20511;-79
2021/01/10 04:31:44;;;;;;;22.23;14.70;;;-1.70;96.90;;;;;;5057019;28;20487;-78
2021/01/10 04:34:10;;;;;;;20.63;13.63;;;-1.70;96.60;;;;;;5056329;28;20457;-79
2021/01/10 04:36:37;;;;;;;18.83;12.80;;;-1.60;95.80;;;;;;5048898;28;20543;-78
2021/01/10 04:39:04;;;;;;;18.60;12.60;;;-1.60;95.00;;;;;;5064507;28;20461;-79
2021/01/10 04:41:35;;;;;;;20.90;14.30;;;-1.50;94.30;;;;;;5070393;28;20461;-79
2021/01/10 04:44:03;;;;;;;18.23;14.70;;;-1.60;93.50;;;;;;5065176;28;20772;-79
2021/01/10 04:46:30;;;;;;;18.77;14.30;;;-1.60;94.20;;;;;;5068570;28;20451;-80
2021/01/10 04:48:57;;;;;;;20.17;14.27;;;-1.70;94.10;;;;;;5068395;28;20444;-80
2021/01/10 04:51:26;;;;;;;21.70;15.30;;;-1.60;94.30;;;;;;5052981;28;20511;-79
2021/01/10 04:53:56;;;;;;;26.80;21.23;;;-1.60;94.00;;;;;;5062639;28;20453;-78
2021/01/10 04:56:27;;;;;;;25.20;15.53;;;-1.60;93.90;;;;;;5057492;28;20469;-78
2021/01/10 04:58:56;;;;;;;19.03;13.80;;;-1.70;93.10;;;;;;5051394;28;20454;-78
2021/01/10 05:01:27;;;;;;;20.03;14.10;;;-1.70;93.80;;;;;;5054122;28;20489;-78
2021/01/10 05:03:55;;;;;;;19.07;13.83;;;-1.70;94.60;;;;;;5053335;28;20477;-79
2021/01/10 05:06:22;;;;;;;16.77;13.17;;;-1.70;94.50;;;;;;5048999;28;20547;-79
2021/01/10 05:08:50;;;;;;;22.97;14.10;;;-1.70;94.20;;;;;;5052944;28;20460;-79
2021/01/10 05:11:19;;;;;;;18.70;14.10;;;-1.60;94.20;;;;;;5053951;28;20533;-79
2021/01/10 05:13:46;;;;;;;20.00;13.10;;;-1.60;93.90;;;;;;5053106;28;20508;-79
2021/01/10 05:16:18;;;;;;;20.30;13.90;;;-1.60;94.60;;;;;;5055954;28;20750;-79
2021/01/10 05:18:52;;;;;;;22.43;15.10;;;-1.70;94.20;;;;;;5050160;28;20889;-79
2021/01/10 05:21:20;;;;;;;17.33;13.07;;;-1.70;94.30;;;;;;5052882;28;20513;-79
2021/01/10 05:23:50;;;;;;;18.53;13.57;;;-1.70;95.20;;;;;;5032849;28;20451;-79
2021/01/10 05:26:16;;;;;;;20.80;12.90;;;-1.70;95.40;;;;;;5051797;28;20435;-79
2021/01/10 05:28:43;;;;;;;20.80;14.40;;;-1.70;95.80;;;;;;5059300;28;20436;-79
2021/01/10 05:31:12;;;;;;;18.97;13.50;;;-1.70;95.90;;;;;;5069795;28;20449;-78
2021/01/10 05:33:49;;;;;;;16.50;12.67;;;-1.70;95.90;;;;;;5054467;28;20486;-79
2021/01/10 05:36:26;;;;;;;15.53;11.47;;;-1.70;95.20;;;;;;5052623;28;20467;-79
2021/01/10 05:38:53;;;;;;;19.90;12.70;;;-1.60;95.40;;;;;;5052040;28;20449;-79
2021/01/10 05:41:21;;;;;;;16.73;12.70;;;-1.60;94.60;;;;;;5053278;28;20471;-78
2021/01/10 05:44:01;;;;;;;18.40;12.90;;;-1.60;94.00;;;;;;5051354;28;20455;-79
2021/01/10 05:46:31;;;;;;;18.70;13.40;;;-1.50;94.00;;;;;;5054293;28;20464;-78
2021/01/10 05:48:59;;;;;;;16.03;12.60;;;-1.60;93.60;;;;;;5057358;28;20472;-78
2021/01/10 05:51:31;;;;;;;19.10;12.80;;;-1.60;93.60;;;;;;5050982;28;20463;-79
2021/01/10 05:53:58;;;;;;;15.20;12.20;;;-1.60;93.40;;;;;;5059212;28;20454;-80
2021/01/10 05:56:27;;;;;;;15.47;12.43;;;-1.60;94.00;;;;;;5072105;28;20461;-79
2021/01/10 05:58:55;;;;;;;16.90;13.13;;;-1.60;94.20;;;;;;5060392;28;20457;-76
2021/01/10 06:01:24;;;;;;;21.00;13.40;;;-1.50;93.80;;;;;;5048500;28;20456;-77
2021/01/10 06:03:53;;;;;;;16.23;12.20;;;-1.40;93.40;;;;;;5046059;28;20504;-76
2021/01/10 06:06:20;;;;;;;17.87;12.53;;;-1.40;92.90;;;;;;5044599;28;20532;-77
2021/01/10 06:08:47;;;;;;;17.77;13.13;;;-1.40;92.50;;;;;;5054772;28;20458;-77
2021/01/10 06:11:27;;;;;;;18.47;12.93;;;-1.40;92.20;;;;;;5061998;28;20931;-77
2021/01/10 06:13:57;;;;;;;18.53;12.97;;;-1.30;92.20;;;;;;5051906;28;20528;-76
2021/01/10 06:16:27;;;;;;;17.43;12.07;;;-1.30;91.60;;;;;;5047551;28;20481;-76
2021/01/10 06:18:59;;;;;;;15.90;11.90;;;-1.40;91.90;;;;;;5047174;28;20485;-76
2021/01/10 06:21:27;;;;;;;15.50;11.40;;;-1.40;92.60;;;;;;5047586;28;20533;-77
2021/01/10 06:23:57;;;;;;;19.87;12.60;;;-1.40;92.90;;;;;;5043038;28;20767;-77
2021/01/10 06:26:25;;;;;;;17.03;12.33;;;-1.30;92.70;;;;;;5044851;28;20464;-76
2021/01/10 06:28:55;;;;;;;18.77;13.40;;;-1.30;91.70;;;;;;5045727;28;20470;-76
2021/01/10 06:31:24;;;;;;;18.03;12.77;;;-1.30;91.30;;;;;;5044566;28;20450;-77
2021/01/10 06:33:55;;;;;;;15.77;11.93;;;-1.30;91.50;;;;;;5044705;28;20434;-77
2021/01/10 06:36:23;;;;;;;19.20;13.07;;;-1.30;91.50;;;;;;5050356;28;21025;-77
2021/01/10 06:38:53;;;;;;;18.50;13.00;;;-1.20;91.60;;;;;;5051598;28;20833;-76
2021/01/10 06:42:01;;;;;;;15.70;12.40;;;-1.30;91.00;;;;;;5050360;28;20516;-77
2021/01/10 06:44:32;;;;;;;13.60;11.10;;;-1.20;91.60;;;;;;5049109;28;20515;-78
2021/01/10 06:46:59;;;;;;;16.03;12.73;;;-1.20;90.80;;;;;;5046892;28;20483;-77
2021/01/10 06:49:25;;;;;;;16.53;12.00;;;-1.30;91.30;;;;;;5053561;28;20456;-76
2021/01/10 06:51:57;;;;;;;18.70;11.70;;;-1.20;91.10;;;;;;5049047;28;20990;-77
2021/01/10 06:54:24;;;;;;;19.83;13.37;;;-1.20;91.00;;;;;;5051814;28;20496;-77
2021/01/10 06:56:54;;;;;;;17.57;13.37;;;-1.20;90.70;;;;;;5047196;28;20471;-77
2021/01/10 06:59:21;;;;;;;19.20;13.07;;;-1.20;91.00;;;;;;5049622;28;20512;-77
2021/01/10 07:02:01;;;;;;;17.03;12.17;;;-1.10;90.90;;;;;;5049469;28;20548;-78
2021/01/10 07:04:55;;;;;;;17.97;12.93;;;-1.20;90.70;;;;;;5049705;28;20438;-77
2021/01/10 07:07:42;;;;;;;16.97;12.40;;;-1.20;91.10;;;;;;5043355;28;20446;-76
2021/01/10 07:10:11;;;;;;;18.97;12.47;;;-1.30;90.90;;;;;;5044845;28;20443;-76
2021/01/10 07:12:37;;;;;;;17.20;12.63;;;-1.20;91.30;;;;;;5049536;28;20474;-76
2021/01/10 07:15:27;;;;;;;17.53;13.23;;;-1.10;90.60;;;;;;5046632;28;21053;-77
2021/01/10 07:18:10;;;;;;;18.43;14.10;;;-1.10;90.20;;;;;;5041948;28;20492;-76
2021/01/10 07:20:42;;;;;;;15.80;12.60;;;-1.10;89.40;;;;;;5045988;28;20450;-77
2021/01/10 07:23:32;;;;;;;14.90;11.87;;;-1.20;89.80;;;;;;5044049;28;20454;-76
2021/01/10 07:26:03;;;;;;;18.00;12.80;;;-1.20;90.30;;;;;;5044060;28;20493;-76
2021/01/10 07:28:31;;;;;;;18.63;12.43;;;-1.20;90.40;;;;;;5041880;28;20485;-76
2021/01/10 07:31:19;;;;;;;17.47;12.10;;;-1.10;90.70;;;;;;5052064;28;20529;-77
2021/01/10 07:33:46;;;;;;;17.00;12.23;;;-1.00;90.40;;;;;;5040182;28;20862;-76
2021/01/10 07:36:13;;;;;;;15.20;12.53;;;-1.00;90.40;;;;;;5044980;28;20469;-77
2021/01/10 07:38:42;;;;;;;15.90;12.63;;;-1.00;89.70;;;;;;5047891;28;20486;-76
2021/01/10 07:41:25;;;;;;;18.37;13.37;;;-0.90;88.30;;;;;;5050696;28;20445;-76
2021/01/10 07:43:56;;;;;;;17.27;12.63;;;-0.90;88.60;;;;;;5045086;28;20459;-77
2021/01/10 07:46:59;;;;;;;17.57;12.83;;;-0.80;88.00;;;;;;5045411;28;20970;-76
2021/01/10 07:49:31;;;;;;;19.63;13.50;;;-0.80;87.50;;;;;;5045941;28;20450;-77
2021/01/10 07:51:58;;;;;;;18.13;13.37;;;-0.80;87.60;;;;;;5048553;28;20467;-76
2021/01/10 07:54:53;;;;;;;18.10;12.10;;;-0.70;86.60;;;;;;5040861;28;20457;-77
2021/01/10 07:57:27;;;;;;;16.60;12.17;;;-0.60;86.60;;;;;;5046719;28;20455;-76
2021/01/10 08:00:22;;;;;;;14.20;11.27;;;-0.60;85.40;;;;;;5041004;28;20456;-76
2021/01/10 08:02:57;;;;;;;18.27;11.97;;;-0.50;83.20;;;;;;5043383;28;21231;-77
2021/01/10 08:05:32;;;;;;;15.13;12.33;;;-0.60;82.90;;;;;;5043690;28;20463;-76
2021/01/10 08:08:00;;;;;;;17.70;12.27;;;-0.60;82.90;;;;;;5054166;28;20449;-78
2021/01/10 08:10:42;;;;;;;16.87;11.80;;;-0.40;83.10;;;;;;5046306;28;20601;-77
2021/01/10 08:13:33;;;;;;;13.77;11.47;;;-0.50;82.60;;;;;;5045391;28;20531;-77
2021/01/10 08:16:02;;;;;;;15.37;12.20;;;-0.40;83.30;;;;;;5004444;28;20486;-76
2021/01/10 08:18:36;;;;;;;18.50;13.27;;;-0.40;81.00;;;;;;5045493;28;20481;-77
2021/01/10 08:21:05;;;;;;;15.70;12.80;;;-0.40;81.60;;;;;;5043859;28;20474;-77
2021/01/10 08:23:32;;;;;;;16.73;13.37;;;-0.40;81.40;;;;;;5050867;28;20482;-77
2021/01/10 08:26:04;;;;;;;16.00;12.80;;;-0.20;81.70;;;;;;5056644;28;20450;-79
2021/01/10 08:28:34;;;;;;;13.70;11.20;;;-0.20;79.90;;;;;;5062100;28;20531;-78
2021/01/10 08:31:03;;;;;;;15.03;12.30;;;0.10;80.40;;;;;;5063262;28;20446;-78
2021/01/10 08:33:29;;;;;;;16.00;11.90;;;0.10;79.30;;;;;;5054346;28;20447;-77
2021/01/10 08:36:12;;;;;;;14.20;11.63;;;0.20;78.20;;;;;;5046981;28;20474;-77
2021/01/10 08:38:45;;;;;;;16.50;11.60;;;0.30;78.10;;;;;;5052789;28;20842;-77
2021/01/10 08:41:19;;;;;;;14.87;11.47;;;0.30;77.20;;;;;;5046342;28;20458;-77
2021/01/10 08:43:50;;;;;;;17.00;12.67;;;0.20;77.30;;;;;;5048433;28;20442;-78
2021/01/10 08:46:16;;;;;;;17.00;13.30;;;0.20;77.10;;;;;;5052474;28;21006;-78
2021/01/10 08:48:43;;;;;;;14.30;12.30;;;0.30;77.10;;;;;;5052826;28;20454;-77
2021/01/10 08:51:11;;;;;;;15.43;10.97;;;0.20;78.20;;;;;;5053428;28;20558;-77
2021/01/10 08:53:41;;;;;;;16.20;11.67;;;0.20;77.40;;;;;;5038717;28;20458;-77
2021/01/10 08:56:15;;;;;;;14.30;12.10;;;0.20;77.70;;;;;;5051397;28;20582;-78
2021/01/10 08:58:42;;;;;;;17.50;13.10;;;0.40;77.40;;;;;;5048664;28;20475;-77
2021/01/10 09:01:18;;;;;;;18.10;13.53;;;0.20;76.70;;;;;;5045969;28;20589;-77
2021/01/10 09:03:57;;;;;;;14.07;11.60;;;0.30;76.70;;;;;;5048311;28;20445;-76
2021/01/10 09:06:27;;;;;;;15.37;11.77;;;0.40;76.90;;;;;;5047499;28;20447;-76
2021/01/10 09:09:00;;;;;;;17.70;13.17;;;0.50;76.70;;;;;;5048084;28;20516;-75
2021/01/10 09:11:30;;;;;;;16.00;12.17;;;0.70;75.70;;;;;;5043332;28;21032;-75
2021/01/10 09:14:07;;;;;;;16.20;12.30;;;0.60;76.40;;;;;;5041990;28;20482;-76
2021/01/10 09:16:36;;;;;;;18.23;13.13;;;0.80;75.70;;;;;;5041391;28;20479;-76
2021/01/10 09:19:09;;;;;;;14.20;11.50;;;1.00;75.40;;;;;;5041709;28;20823;-76
2021/01/10 09:21:39;;;;;;;15.73;13.10;;;0.70;75.10;;;;;;5039532;28;20455;-76
2021/01/10 09:24:06;;;;;;;19.03;13.33;;;0.70;74.90;;;;;;5042570;28;20456;-76
2021/01/10 09:26:34;;;;;;;17.30;12.60;;;0.70;75.20;;;;;;5043922;28;20434;-76
2021/01/10 09:29:02;;;;;;;17.00;12.97;;;0.60;75.30;;;;;;5046996;28;20450;-77
2021/01/10 09:31:40;;;;;;;18.13;13.90;;;0.90;74.90;;;;;;5045630;28;20814;-76
2021/01/10 09:34:07;;;;;;;18.30;12.70;;;0.90;74.90;;;;;;5037758;28;20891;-78
2021/01/10 09:36:38;;;;;;;16.63;13.73;;;0.70;74.60;;;;;;5040006;28;20466;-77
2021/01/10 09:39:06;;;;;;;16.27;13.17;;;1.10;74.50;;;;;;5047141;28;21062;-76
2021/01/10 09:41:51;;;;;;;16.27;12.73;;;1.40;74.00;;;;;;5046871;28;20970;-76
2021/01/10 09:44:18;;;;;;;14.97;12.33;;;1.20;74.00;;;;;;5044270;28;20494;-75
2021/01/10 09:46:51;;;;;;;16.60;12.40;;;1.10;73.60;;;;;;5043977;28;20504;-75
2021/01/10 09:49:20;;;;;;;20.30;12.97;;;1.30;73.50;;;;;;5041336;28;20873;-75
2021/01/10 09:51:52;;;;;;;14.73;10.73;;;1.40;73.70;;;;;;5044022;28;20460;-77
2021/01/10 09:54:22;;;;;;;14.83;11.40;;;1.70;73.00;;;;;;5049287;28;20558;-76
2021/01/10 09:56:51;;;;;;;16.60;11.83;;;1.40;71.30;;;;;;5055130;28;20481;-76
2021/01/10 09:59:38;;;;;;;14.90;11.37;;;1.10;72.10;;;;;;5044469;28;21043;-76
2021/01/10 10:02:16;;;;;;;16.07;11.93;;;1.50;72.40;;;;;;5047807;28;20454;-75
2021/01/10 10:04:45;;;;;;;14.80;11.60;;;1.80;71.50;;;;;;5051080;28;20458;-75
2021/01/10 10:07:12;;;;;;;13.93;11.17;;;1.70;71.50;;;;;;5053617;28;20607;-76
2021/01/10 10:09:52;;;;;;;16.33;11.17;;;1.90;71.50;;;;;;5043853;28;20483;-76
2021/01/10 10:12:21;;;;;;;14.20;9.67;;;2.20;70.50;;;;;;5047236;28;20472;-76
2021/01/10 10:14:52;;;;;;;11.83;9.67;;;2.10;70.30;;;;;;5041652;28;20471;-77
2021/01/10 10:17:19;;;;;;;15.90;10.80;;;2.20;69.80;;;;;;5042265;28;20513;-77
2021/01/10 10:19:46;;;;;;;13.40;9.80;;;2.00;69.60;;;;;;5042500;28;20469;-75
2021/01/10 10:22:30;;;;;;;14.73;10.90;;;1.90;69.10;;;;;;5042729;28;20541;-74
2021/01/10 10:24:57;;;;;;;12.40;10.60;;;1.60;68.50;;;;;;5038353;28;20463;-75
2021/01/10 10:27:27;;;;;;;14.80;10.73;;;1.50;69.40;;;;;;5040317;28;20464;-77
2021/01/10 10:29:53;;;;;;;13.07;10.40;;;1.60;69.40;;;;;;5040321;28;21519;-76
2021/01/10 10:32:23;;;;;;;12.87;10.80;;;1.60;69.60;;;;;;5044721;28;20455;-76
2021/01/10 10:34:53;;;;;;;16.17;11.30;;;1.40;69.80;;;;;;5045727;28;20478;-75
2021/01/10 10:37:21;;;;;;;15.90;10.50;;;1.20;69.70;;;;;;5044163;28;20477;-79
2021/01/10 10:39:48;;;;;;;14.33;10.40;;;1.20;69.80;;;;;;5057381;28;20504;-78
2021/01/10 10:45:04;;;;;;;13.40;10.50;;;1.30;69.90;;;;;;5052693;28;20449;-79
2021/01/10 10:47:34;;;;;;;13.83;10.27;;;1.40;70.10;;;;;;5046841;28;20961;-79
2021/01/10 10:50:00;;;;;;;14.10;10.00;;;1.50;69.80;;;;;;5042132;28;20528;-76
2021/01/10 10:52:27;;;;;;;11.37;9.87;;;1.60;69.50;;;;;;5045948;28;20456;-77
2021/01/10 10:54:54;;;;;;;12.60;8.93;;;1.40;69.30;;;;;;5042730;28;20486;-77
2021/01/10 10:57:20;;;;;;;15.23;10.50;;;1.30;69.40;;;;;;5047257;28;20467;-79
2021/01/10 10:59:48;;;;;;;13.67;8.87;;;1.40;69.40;;;;;;5052845;28;20446;-79
2021/01/10 11:02:18;;;;;;;12.23;8.70;;;1.40;69.30;;;;;;5055004;28;20993;-79
2021/01/10 11:04:45;;;;;;;13.63;10.03;;;1.50;69.10;;;;;;5057489;28;20447;-80
2021/01/10 11:07:13;;;;;;;13.43;8.90;;;1.30;69.40;;;;;;5045673;28;20486;-80
2021/01/10 11:09:39;;;;;;;11.00;8.87;;;1.10;69.50;;;;;;5055920;28;20450;-80
2021/01/10 11:12:09;;;;;;;11.23;9.10;;;1.20;69.60;;;;;;5048362;28;20488;-80
2021/01/10 11:14:35;;;;;;;12.40;9.30;;;1.20;69.60;;;;;;5051937;28;20446;-80
2021/01/10 11:17:06;;;;;;;13.53;10.30;;;1.10;69.40;;;;;;5052433;28;20468;-80
2021/01/10 11:19:34;;;;;;;12.03;8.47;;;1.20;69.60;;;;;;5050705;28;20502;-80
2021/01/10 11:22:04;;;;;;;15.40;11.27;;;1.30;69.60;;;;;;5055251;28;20462;-80
2021/01/10 11:24:31;;;;;;;13.87;10.17;;;1.50;69.70;;;;;;5057537;28;20524;-80
2021/01/10 11:26:58;;;;;;;15.80;10.97;;;1.80;69.80;;;;;;5077333;28;20434;-80
2021/01/10 11:29:26;;;;;;;17.60;10.07;;;1.90;69.60;;;;;;5063220;28;20457;-80
2021/01/10 11:31:53;;;;;;;12.50;9.80;;;2.00;69.10;;;;;;5066516;28;20442;-80
2021/01/10 11:34:20;;;;;;;18.07;10.00;;;2.10;68.50;;;;;;5056258;28;20453;-78
2021/01/10 11:36:52;;;;;;;14.10;10.33;;;2.20;68.70;;;;;;5061352;28;21056;-80
2021/01/10 11:39:21;;;;;;;13.43;10.10;;;1.80;67.90;;;;;;5053637;28;20456;-78
2021/01/10 11:41:51;;;;;;;14.00;10.00;;;1.60;67.90;;;;;;5051796;28;20452;-79
2021/01/10 11:44:20;;;;;;;16.90;11.17;;;1.30;68.50;;;;;;5052329;28;20454;-77
2021/01/10 11:46:49;;;;;;;14.87;9.63;;;1.50;68.60;;;;;;5048031;28;20850;-78
2021/01/10 11:49:16;;;;;;;15.90;11.60;;;1.40;68.20;;;;;;5046654;28;20539;-79
2021/01/10 11:51:43;;;;;;;14.77;11.00;;;1.40;68.40;;;;;;5046653;28;20450;-77
2021/01/10 11:54:12;;;;;;;15.43;10.00;;;1.60;68.50;;;;;;5046758;28;20460;-79
2021/01/10 11:56:39;;;;;;;12.93;10.27;;;1.40;68.30;;;;;;5046654;28;20509;-78
2021/01/10 11:59:06;;;;;;;14.40;9.97;;;1.30;68.20;;;;;;5045697;28;20460;-79
2021/01/10 12:01:32;;;;;;;15.07;10.10;;;1.10;68.20;;;;;;5050908;28;20833;-78
2021/01/10 12:04:04;;;;;;;14.40;11.27;;;1.10;68.40;;;;;;5042276;28;20457;-78
2021/01/10 12:06:37;;;;;;;16.70;11.80;;;1.20;68.90;;;;;;5048272;28;20823;-78
2021/01/10 12:09:08;;;;;;;16.47;12.30;;;1.20;68.90;;;;;;5046013;28;20454;-78
2021/01/10 12:11:35;;;;;;;14.97;10.80;;;1.50;68.80;;;;;;5048171;28;20456;-78
2021/01/10 12:14:02;;;;;;;16.37;10.83;;;1.80;68.70;;;;;;5042970;28;20484;-78
2021/01/10 12:16:28;;;;;;;14.90;11.30;;;1.70;68.10;;;;;;5049452;28;20467;-78
2021/01/10 12:18:55;;;;;;;15.93;11.03;;;1.60;67.90;;;;;;5045727;28;20454;-78
2021/01/10 12:21:22;;;;;;;17.73;11.17;;;1.70;67.90;;;;;;5047264;28;20483;-79
2021/01/10 12:23:53;;;;;;;16.30;10.97;;;1.90;68.20;;;;;;5047253;28;20445;-79
2021/01/10 12:26:19;;;;;;;15.30;10.80;;;2.00;68.20;;;;;;5053655;28;20475;-79
2021/01/10 12:28:47;;;;;;;16.60;10.87;;;1.60;67.80;;;;;;5064232;28;20455;-78
2021/01/10 12:31:14;;;;;;;14.33;10.30;;;1.50;68.10;;;;;;5043725;28;20479;-79
2021/01/10 12:33:42;;;;;;;16.90;11.13;;;1.50;68.20;;;;;;5044961;28;20462;-78
2021/01/10 12:36:11;;;;;;;15.43;10.20;;;1.60;68.20;;;;;;5042346;28;20586;-77
2021/01/10 12:38:39;;;;;;;13.43;10.00;;;1.80;68.10;;;;;;5039389;28;20463;-78
2021/01/10 12:41:06;;;;;;;13.30;10.50;;;1.70;67.40;;;;;;5039947;28;20466;-77
2021/01/10 12:43:33;;;;;;;10.97;8.40;;;1.60;67.10;;;;;;5043897;28;20465;-77
2021/01/10 12:46:00;;;;;;;13.70;9.90;;;2.00;67.50;;;;;;5039709;28;20463;-78
2021/01/10 12:48:27;;;;;;;14.50;10.47;;;2.00;67.10;;;;;;5043162;28;21061;-78